East Lyndon, Vermont
Current Conditions -  °F | °C
As of 12:55 PM on Friday 24 Oct 2014 (Local Time) from KCDA Reporting Station
Overcast Overcast  
Wind Chill: 39°   Ceiling: 1000
Heat Index: 44°   Visibility: 10mi
Dew Point: 39°   Wind: 8mph
Humidity: 82%   Direction: 300°WNW
Pressure: 29.78"   Gusts: NA
Location:  44.5541°N, 72.0612°W
Report Text: KCDA 241655Z AUTO 30007KT 10SM OVC010 07/04 A2978 RMK AO2 T00650037
Loading
Personal Weather Stations






























Interactive Weather Map
Tropical Storm Tracking
New forecast layout! Learn more

10-Day Weather Forecast

Advertisements
Track Severe Weather on mobile